createdAt,value
2018-02-21T00:01:04.951Z,95.88
2018-02-21T00:03:35.730Z,95.89
2018-02-21T00:06:06.542Z,95.79
2018-02-21T00:08:37.373Z,95.77
2018-02-21T00:11:09.241Z,95.73
2018-02-21T00:13:40.055Z,95.69
2018-02-21T00:16:10.887Z,95.84
2018-02-21T00:18:41.714Z,95.95
2018-02-21T00:21:12.559Z,95.97
2018-02-21T00:23:43.351Z,95.98
2018-02-21T00:26:14.175Z,95.94
2018-02-21T00:28:44.992Z,95.93
2018-02-21T00:31:15.866Z,95.97
2018-02-21T00:33:46.699Z,95.99
2018-02-21T00:36:17.507Z,96.01
2018-02-21T00:38:48.335Z,95.98
2018-02-21T00:41:19.152Z,96.05
2018-02-21T00:43:49.920Z,96.05
2018-02-21T00:46:20.745Z,95.97
2018-02-21T00:48:51.517Z,96.02
2018-02-21T00:51:22.347Z,96.04
2018-02-21T00:53:53.250Z,95.99
2018-02-21T00:56:24.120Z,96.11
2018-02-21T00:58:54.922Z,96.08
2018-02-21T01:01:25.765Z,96.12
2018-02-21T01:03:56.573Z,96.10
2018-02-21T01:06:27.420Z,96.02
2018-02-21T01:08:58.254Z,96.02
2018-02-21T01:11:29.088Z,95.96
2018-02-21T01:13:59.894Z,95.93
2018-02-21T01:16:30.730Z,95.88
2018-02-21T01:19:01.524Z,95.88
2018-02-21T01:21:32.349Z,95.89
2018-02-21T01:24:03.182Z,95.91
2018-02-21T01:26:34.004Z,95.94
2018-02-21T01:29:04.824Z,95.95
2018-02-21T01:31:35.654Z,95.96
2018-02-21T01:34:06.530Z,95.82
2018-02-21T01:36:37.403Z,95.84
2018-02-21T01:39:08.213Z,95.91
2018-02-21T01:41:39.052Z,95.87
2018-02-21T01:44:09.851Z,95.80
2018-02-21T01:46:40.714Z,95.65
2018-02-21T01:49:11.514Z,95.54
2018-02-21T01:51:42.317Z,95.57
2018-02-21T01:54:13.146Z,95.56
2018-02-21T01:56:44.006Z,95.44
2018-02-21T01:59:14.809Z,95.14
2018-02-21T02:01:46.451Z,94.70
2018-02-21T02:04:17.289Z,94.23
2018-02-21T02:06:48.121Z,93.95
2018-02-21T02:09:18.934Z,93.74
2018-02-21T02:11:49.779Z,93.61
2018-02-21T02:14:20.584Z,93.28
2018-02-21T02:16:51.405Z,92.63
2018-02-21T02:19:22.225Z,92.73
2018-02-21T02:21:53.114Z,92.38
2018-02-21T02:24:23.960Z,92.55
2018-02-21T02:26:54.860Z,92.25
2018-02-21T02:29:25.679Z,92.20
2018-02-21T02:31:56.513Z,92.27
2018-02-21T02:34:27.319Z,91.89
2018-02-21T02:36:58.197Z,91.96
2018-02-21T02:39:41.254Z,92.20
2018-02-21T02:42:12.053Z,91.71
2018-02-21T02:44:42.862Z,91.46
2018-02-21T02:47:13.747Z,91.47
2018-02-21T02:49:44.555Z,91.37
2018-02-21T02:52:15.388Z,91.73
2018-02-21T02:54:46.205Z,91.31
2018-02-21T02:57:17.033Z,91.75
2018-02-21T02:59:47.857Z,91.78
2018-02-21T03:02:18.669Z,91.12
2018-02-21T03:04:49.503Z,91.32
2018-02-21T03:07:20.348Z,91.40
2018-02-21T03:09:51.177Z,91.20
2018-02-21T03:12:22.025Z,91.09
2018-02-21T03:14:52.869Z,91.25
2018-02-21T03:17:23.698Z,91.39
2018-02-21T03:19:54.538Z,91.49
2018-02-21T03:22:25.371Z,91.44
2018-02-21T03:24:56.198Z,91.24
2018-02-21T03:27:27.061Z,91.36
2018-02-21T03:29:57.902Z,91.17
2018-02-21T03:32:28.770Z,91.08
2018-02-21T03:34:59.597Z,90.99
2018-02-21T03:37:30.450Z,91.17
2018-02-21T03:40:01.250Z,91.39
2018-02-21T03:42:32.096Z,91.29
2018-02-21T03:45:02.930Z,91.37
2018-02-21T03:47:33.782Z,91.09
2018-02-21T03:50:04.644Z,91.41
2018-02-21T03:52:35.757Z,91.31
2018-02-21T03:55:06.566Z,91.31
2018-02-21T03:57:37.377Z,91.36
2018-02-21T04:00:08.178Z,91.34
2018-02-21T04:02:39.298Z,91.44
2018-02-21T04:05:10.542Z,91.48
2018-02-21T04:07:41.407Z,91.53
2018-02-21T04:10:12.242Z,91.58
2018-02-21T04:12:43.081Z,91.65
2018-02-21T04:15:13.910Z,91.58
2018-02-21T04:17:44.808Z,91.51
2018-02-21T04:20:15.644Z,91.75
2018-02-21T04:22:46.477Z,92.01
2018-02-21T04:25:17.289Z,92.05
2018-02-21T04:27:48.416Z,91.98
2018-02-21T04:30:19.214Z,91.99
2018-02-21T04:32:52.004Z,92.15
2018-02-21T04:35:22.828Z,92.01
2018-02-21T04:37:53.670Z,91.94
2018-02-21T04:40:24.479Z,92.08
2018-02-21T04:42:55.292Z,92.20
2018-02-21T04:45:26.136Z,92.29
2018-02-21T04:47:56.994Z,92.26
2018-02-21T04:50:27.837Z,92.32
2018-02-21T04:52:58.698Z,92.49
2018-02-21T04:55:31.471Z,92.54
2018-02-21T04:58:08.315Z,92.29
2018-02-21T05:00:39.398Z,92.22
2018-02-21T05:03:10.204Z,92.32
2018-02-21T05:05:41.090Z,92.40
2018-02-21T05:08:12.302Z,92.51
2018-02-21T05:10:43.143Z,92.70
2018-02-21T05:13:13.989Z,92.69
2018-02-21T05:15:44.821Z,92.48
2018-02-21T05:18:15.942Z,92.21
2018-02-21T05:20:46.732Z,92.12
2018-02-21T05:23:17.547Z,91.74
2018-02-21T05:25:48.324Z,91.02
2018-02-21T05:28:19.166Z,90.81
2018-02-21T05:30:50.675Z,90.77
2018-02-21T05:33:21.499Z,90.72
2018-02-21T05:35:52.343Z,90.92
2018-02-21T05:38:23.174Z,91.13
2018-02-21T05:40:54.000Z,91.39
2018-02-21T05:43:25.161Z,91.40
2018-02-21T05:45:55.943Z,91.55
2018-02-21T05:48:26.795Z,91.48
2018-02-21T05:50:57.575Z,91.53
2018-02-21T05:53:28.410Z,91.62
2018-02-21T05:55:59.250Z,91.71
2018-02-21T05:58:30.110Z,91.41
2018-02-21T06:01:01.446Z,91.52
2018-02-21T06:03:32.286Z,91.57
2018-02-21T06:06:03.084Z,91.53
2018-02-21T06:08:33.915Z,91.57
2018-02-21T06:11:04.685Z,91.39
2018-02-21T06:13:35.469Z,91.28
2018-02-21T06:16:06.248Z,91.26
2018-02-21T06:18:37.068Z,91.18
2018-02-21T06:21:07.825Z,91.24
2018-02-21T06:23:38.613Z,91.31
2018-02-21T06:26:09.412Z,91.37
2018-02-21T06:28:40.204Z,91.22
2018-02-21T06:31:10.994Z,91.16
2018-02-21T06:33:41.760Z,90.95
2018-02-21T06:36:12.539Z,90.85
2018-02-21T06:38:43.540Z,90.41
2018-02-21T06:41:15.343Z,90.56
2018-02-21T06:43:46.129Z,90.09
2018-02-21T06:46:16.897Z,89.94
2018-02-21T06:48:47.742Z,89.82
2018-02-21T06:51:18.614Z,89.76
2018-02-21T06:53:49.456Z,89.46
2018-02-21T06:56:21.289Z,89.13
2018-02-21T06:58:52.076Z,88.81
2018-02-21T07:01:22.836Z,88.57
2018-02-21T07:03:53.613Z,88.28
2018-02-21T07:06:24.375Z,88.14
2018-02-21T07:08:56.208Z,87.79
2018-02-21T07:11:26.960Z,87.16
2018-02-21T07:13:57.754Z,86.79
2018-02-21T07:16:28.498Z,86.80
2018-02-21T07:18:59.343Z,86.72
2018-02-21T07:21:30.088Z,86.18
2018-02-21T07:24:00.836Z,85.72
2018-02-21T07:26:31.592Z,85.70
2018-02-21T07:29:02.348Z,85.06
2018-02-21T07:31:33.097Z,85.39
2018-02-21T07:34:03.861Z,85.66
2018-02-21T07:36:34.588Z,85.78
2018-02-21T07:39:05.364Z,85.80
2018-02-21T07:41:36.316Z,85.84
2018-02-21T07:44:07.145Z,86.02
2018-02-21T07:46:38.079Z,85.42
2018-02-21T07:49:09.079Z,85.98
2018-02-21T07:51:40.046Z,85.44
2018-02-21T07:54:11.064Z,84.33
2018-02-21T07:56:42.021Z,84.94
2018-02-21T07:59:13.028Z,83.82
2018-02-21T08:01:43.992Z,83.35
2018-02-21T08:04:16.004Z,82.74
2018-02-21T08:06:46.966Z,81.38
2018-02-21T08:09:18.033Z,79.89
2018-02-21T08:11:48.966Z,79.58
2018-02-21T08:14:19.934Z,79.02
2018-02-21T08:16:51.927Z,78.70
2018-02-21T08:19:22.977Z,78.25
2018-02-21T08:21:53.961Z,77.74
2018-02-21T08:24:24.954Z,77.44
2018-02-21T08:26:56.250Z,77.71
2018-02-21T08:29:27.242Z,77.25
2018-02-21T08:31:58.187Z,78.10
2018-02-21T08:34:29.167Z,77.71
2018-02-21T08:36:59.930Z,77.82
2018-02-21T08:39:30.895Z,77.48
2018-02-21T08:42:01.837Z,76.77
2018-02-21T08:44:32.826Z,77.14
2018-02-21T08:47:03.796Z,75.88
2018-02-21T08:49:34.777Z,74.98
2018-02-21T08:52:06.861Z,74.37
2018-02-21T08:54:37.851Z,75.95
2018-02-21T08:57:08.820Z,76.78
2018-02-21T08:59:39.783Z,76.73
2018-02-21T09:02:11.799Z,76.69
2018-02-21T09:04:42.836Z,76.74
2018-02-21T09:07:13.830Z,78.32
2018-02-21T09:09:44.876Z,77.36
2018-02-21T09:12:15.862Z,74.97
2018-02-21T09:14:46.828Z,75.69
2018-02-21T09:17:17.797Z,74.00
2018-02-21T09:19:48.801Z,73.96
2018-02-21T09:22:19.808Z,74.17
2018-02-21T09:24:55.349Z,74.34
2018-02-21T09:27:26.389Z,72.27
2018-02-21T09:29:57.364Z,73.87
2018-02-21T09:32:28.327Z,70.05
2018-02-21T09:34:59.297Z,69.71
2018-02-21T09:37:42.828Z,71.36
2018-02-21T09:40:13.935Z,70.22
2018-02-21T09:42:45.007Z,67.25
2018-02-21T09:45:15.995Z,68.23
2018-02-21T09:47:46.966Z,67.14
2018-02-21T09:50:17.920Z,67.72
2018-02-21T09:52:48.880Z,67.04
2018-02-21T09:55:23.652Z,66.53
2018-02-21T09:57:54.613Z,65.34
2018-02-21T10:00:25.600Z,65.01
2018-02-21T10:02:57.352Z,63.37
2018-02-21T10:05:28.376Z,63.58
2018-02-21T10:07:59.417Z,63.40
2018-02-21T10:10:30.431Z,61.79
2018-02-21T10:13:01.397Z,63.78
2018-02-21T10:15:32.382Z,63.45
2018-02-21T10:18:03.325Z,62.70
2018-02-21T10:20:34.335Z,62.57
2018-02-21T10:23:05.252Z,63.12
2018-02-21T10:25:36.237Z,59.83
2018-02-21T10:28:15.309Z,62.14
2018-02-21T10:30:46.301Z,60.85
2018-02-21T10:33:17.258Z,61.67
2018-02-21T10:35:48.237Z,59.63
2018-02-21T10:38:19.243Z,60.12
2018-02-21T10:40:50.262Z,59.04
2018-02-21T10:43:21.202Z,60.51
2018-02-21T10:46:03.768Z,59.45
2018-02-21T10:48:40.305Z,59.64
2018-02-21T10:51:11.102Z,60.14
2018-02-21T10:53:41.857Z,58.27
2018-02-21T10:56:12.653Z,60.07
2018-02-21T10:58:44.429Z,59.47
2018-02-21T11:01:21.225Z,60.54
2018-02-21T11:03:51.969Z,59.65
2018-02-21T11:06:22.740Z,58.66
2018-02-21T11:08:53.492Z,62.17
2018-02-21T11:11:24.273Z,58.17
2018-02-21T11:13:55.044Z,59.04
2018-02-21T11:16:25.817Z,57.83
2018-02-21T11:24:56.085Z,57.81
2018-02-21T11:27:26.893Z,57.22
2018-02-21T11:30:04.104Z,58.65
2018-02-21T11:32:41.678Z,56.74
2018-02-21T11:35:16.013Z,55.97
2018-02-21T11:37:46.813Z,57.47
2018-02-21T11:40:21.410Z,58.52
2018-02-21T11:48:57.710Z,59.19
2018-02-21T11:51:28.562Z,55.54
2018-02-21T11:53:59.435Z,56.86
2018-02-21T11:56:30.268Z,55.54
2018-02-21T11:59:01.085Z,55.80
2018-02-21T12:01:31.866Z,53.87
2018-02-21T12:04:02.714Z,56.05
2018-02-21T12:06:33.519Z,53.05
2018-02-21T12:09:04.329Z,55.01
2018-02-21T12:11:35.147Z,51.98
2018-02-21T12:14:06.024Z,49.94
2018-02-21T12:16:36.819Z,50.78
2018-02-21T12:19:07.694Z,51.57
2018-02-21T12:21:38.523Z,52.44
2018-02-21T12:24:09.330Z,50.37
2018-02-21T12:26:40.171Z,52.35
2018-02-21T12:29:11.938Z,50.90
2018-02-21T12:31:44.956Z,53.53
2018-02-21T12:34:15.773Z,52.52
2018-02-21T12:36:46.624Z,53.66
2018-02-21T12:39:23.557Z,51.14
2018-02-21T12:41:54.440Z,51.19
2018-02-21T12:44:25.280Z,50.77
2018-02-21T12:46:56.144Z,55.46
2018-02-21T12:49:27.009Z,51.55
2018-02-21T12:51:57.852Z,52.85
2018-02-21T12:54:28.725Z,52.17
2018-02-21T12:56:59.566Z,50.72
2018-02-21T12:59:30.448Z,52.27
2018-02-21T13:02:01.257Z,50.13
2018-02-21T13:04:32.186Z,48.97
2018-02-21T13:07:02.994Z,49.32
2018-02-21T13:09:33.913Z,47.71
2018-02-21T13:12:04.746Z,48.18
2018-02-21T13:14:35.617Z,50.54
2018-02-21T13:17:06.457Z,49.72
2018-02-21T13:19:37.306Z,49.57
2018-02-21T13:22:08.268Z,50.68
2018-02-21T13:24:39.108Z,49.10
2018-02-21T13:27:09.957Z,51.55
2018-02-21T13:29:40.970Z,48.75
2018-02-21T13:32:11.798Z,51.06
2018-02-21T13:34:42.764Z,49.91
2018-02-21T13:37:13.721Z,52.14
2018-02-21T13:39:45.358Z,48.15
2018-02-21T13:42:16.203Z,48.14
2018-02-21T13:44:47.162Z,47.33
2018-02-21T13:47:18.128Z,47.83
2018-02-21T13:49:49.041Z,47.41
2018-02-21T13:52:20.596Z,45.90
2018-02-21T13:54:51.431Z,45.86
2018-02-21T13:57:22.331Z,44.42
2018-02-21T13:59:53.198Z,44.04
2018-02-21T14:02:24.039Z,42.58
2018-02-21T14:04:55.964Z,43.41
2018-02-21T14:07:26.873Z,41.82
2018-02-21T14:09:57.845Z,41.44
2018-02-21T14:12:28.789Z,41.44
2018-02-21T14:14:59.724Z,42.55
2018-02-21T14:17:30.586Z,43.15
2018-02-21T14:20:01.498Z,41.58
2018-02-21T14:22:32.369Z,41.55
2018-02-21T14:25:03.243Z,44.19
2018-02-21T14:27:34.177Z,41.34
2018-02-21T14:30:05.054Z,44.39
2018-02-21T14:32:35.912Z,42.07
2018-02-21T14:35:06.752Z,42.64
2018-02-21T14:37:37.590Z,44.42
2018-02-21T14:40:08.465Z,41.21
2018-02-21T14:42:39.517Z,43.35
2018-02-21T14:45:10.422Z,41.87
2018-02-21T14:47:41.409Z,45.31
2018-02-21T14:50:12.358Z,48.50
2018-02-21T14:52:43.245Z,46.98
2018-02-21T14:55:14.094Z,47.73
2018-02-21T14:57:44.985Z,49.79
2018-02-21T15:00:15.971Z,50.44
2018-02-21T15:02:46.950Z,51.54
2018-02-21T15:05:17.845Z,48.95
2018-02-21T15:07:48.707Z,49.91
2018-02-21T15:10:19.657Z,50.70
2018-02-21T15:12:50.500Z,50.17
2018-02-21T15:15:21.359Z,50.29
2018-02-21T15:17:52.195Z,52.92
2018-02-21T15:20:23.087Z,52.35
2018-02-21T15:22:54.010Z,50.84
2018-02-21T15:25:24.894Z,50.60
2018-02-21T15:27:55.698Z,50.57
2018-02-21T15:30:26.665Z,51.30
2018-02-21T15:32:57.459Z,51.32
2018-02-21T15:35:28.295Z,51.16
2018-02-21T15:37:59.197Z,53.26
2018-02-21T15:40:30.142Z,52.46
2018-02-21T15:43:01.010Z,52.50
2018-02-21T15:45:31.886Z,53.45
2018-02-21T15:48:02.756Z,54.61
2018-02-21T15:50:33.582Z,57.63
2018-02-21T15:53:04.462Z,56.50
2018-02-21T15:55:35.346Z,56.97
2018-02-21T15:58:06.205Z,55.44
2018-02-21T16:00:37.067Z,56.54
2018-02-21T16:03:07.919Z,56.72
2018-02-21T16:05:38.756Z,57.76
2018-02-21T16:08:09.607Z,58.17
2018-02-21T16:10:40.475Z,60.09
2018-02-21T16:13:11.306Z,59.54
2018-02-21T16:15:42.217Z,59.67
2018-02-21T16:18:16.346Z,59.82
2018-02-21T16:20:47.320Z,59.86
2018-02-21T16:23:18.225Z,60.62
2018-02-21T16:25:49.090Z,61.64
2018-02-21T16:28:19.998Z,62.55
2018-02-21T16:30:50.901Z,64.00
2018-02-21T16:33:21.791Z,63.28
2018-02-21T16:35:53.640Z,61.24
2018-02-21T16:38:24.500Z,60.61
2018-02-21T16:40:55.479Z,61.87
2018-02-21T16:43:26.355Z,62.83
2018-02-21T16:45:57.314Z,63.49
2018-02-21T16:48:28.184Z,62.34
2018-02-21T16:50:59.091Z,63.29
2018-02-21T16:53:30.034Z,61.24
2018-02-21T16:56:00.970Z,61.37
2018-02-21T16:58:31.815Z,60.88
2018-02-21T17:01:02.800Z,61.89
2018-02-21T17:03:33.684Z,61.79
2018-02-21T17:06:05.518Z,63.78
2018-02-21T17:08:36.787Z,62.79
2018-02-21T17:11:11.166Z,63.83
2018-02-21T17:13:42.051Z,62.26
2018-02-21T17:16:12.938Z,64.19
2018-02-21T17:18:43.822Z,64.49
2018-02-21T17:21:14.790Z,62.80
2018-02-21T17:23:45.642Z,62.77
2018-02-21T17:26:16.510Z,63.24
2018-02-21T17:28:47.418Z,64.67
2018-02-21T17:31:18.285Z,63.90
2018-02-21T17:33:49.100Z,63.79
2018-02-21T17:36:19.997Z,63.64
2018-02-21T17:38:50.918Z,66.25
2018-02-21T17:41:31.722Z,65.14
2018-02-21T17:44:02.626Z,66.12
2018-02-21T17:46:33.529Z,65.55
2018-02-21T17:49:04.433Z,66.22
2018-02-21T17:51:35.342Z,67.33
2018-02-21T17:54:06.227Z,68.52
2018-02-21T17:56:37.117Z,69.18
2018-02-21T17:59:08.012Z,69.64
2018-02-21T18:01:38.911Z,69.08
2018-02-21T18:04:09.794Z,68.06
2018-02-21T18:06:40.725Z,68.18
2018-02-21T18:09:11.564Z,67.32
2018-02-21T18:11:42.514Z,67.93
2018-02-21T18:14:13.373Z,67.37
2018-02-21T18:16:44.276Z,67.38
2018-02-21T18:19:17.136Z,66.99
2018-02-21T18:21:48.763Z,67.05
2018-02-21T18:24:21.865Z,68.07
2018-02-21T18:26:56.366Z,68.63
2018-02-21T18:29:29.262Z,68.30
2018-02-21T18:32:00.210Z,68.91
2018-02-21T18:34:33.136Z,67.93
2018-02-21T18:37:04.056Z,66.85
2018-02-21T18:39:34.869Z,68.37
2018-02-21T18:42:05.747Z,66.56
2018-02-21T18:44:36.684Z,68.23
2018-02-21T18:47:07.656Z,66.40
2018-02-21T18:49:38.505Z,66.83
2018-02-21T18:52:09.318Z,67.86
2018-02-21T18:54:40.136Z,68.31
2018-02-21T18:57:10.959Z,68.85
2018-02-21T18:59:41.800Z,68.59
2018-02-21T19:02:12.638Z,68.69
2018-02-21T19:04:43.457Z,68.84
2018-02-21T19:07:14.367Z,68.26
2018-02-21T19:09:45.216Z,69.99
2018-02-21T19:12:16.072Z,69.75
2018-02-21T19:14:46.896Z,68.27
2018-02-21T19:17:18.765Z,68.30
2018-02-21T19:19:49.612Z,69.54
2018-02-21T19:22:20.460Z,67.29
2018-02-21T19:24:52.259Z,67.48
2018-02-21T19:27:23.073Z,67.29
2018-02-21T19:29:53.881Z,67.02
2018-02-21T19:32:24.688Z,67.82
2018-02-21T19:34:55.486Z,66.82
2018-02-21T19:37:26.339Z,66.95
2018-02-21T19:39:57.189Z,66.70
2018-02-21T19:42:28.010Z,65.78
2018-02-21T19:44:58.825Z,66.57
2018-02-21T19:47:29.747Z,67.80
2018-02-21T19:50:00.577Z,66.80
2018-02-21T19:52:31.407Z,65.78
2018-02-21T19:55:02.294Z,65.73
2018-02-21T19:57:33.124Z,65.45
2018-02-21T20:00:03.961Z,65.78
2018-02-21T20:02:34.823Z,65.84
2018-02-21T20:05:05.731Z,66.47
2018-02-21T20:07:36.633Z,65.98
2018-02-21T20:10:07.405Z,64.72
2018-02-21T20:12:38.271Z,65.09
2018-02-21T20:15:09.098Z,65.93
2018-02-21T20:17:39.988Z,66.06
2018-02-21T20:20:10.863Z,67.21
2018-02-21T20:22:41.824Z,66.95
2018-02-21T20:25:12.625Z,65.76
2018-02-21T20:27:43.482Z,65.12
2018-02-21T20:30:14.373Z,66.28
2018-02-21T20:32:45.255Z,66.94
2018-02-21T20:35:16.154Z,66.28
2018-02-21T20:37:47.048Z,66.87
2018-02-21T20:40:17.960Z,68.00
2018-02-21T20:42:48.851Z,68.46
2018-02-21T20:45:20.722Z,69.75
2018-02-21T20:47:51.558Z,68.50
2018-02-21T20:50:22.394Z,70.05
2018-02-21T20:52:54.293Z,68.02
2018-02-21T20:55:25.131Z,69.44
2018-02-21T20:57:55.981Z,68.11
2018-02-21T21:00:26.816Z,68.53
2018-02-21T21:02:57.692Z,68.35
2018-02-21T21:05:28.746Z,69.68
2018-02-21T21:07:59.618Z,67.63
2018-02-21T21:10:30.474Z,67.91
2018-02-21T21:13:01.381Z,67.31
2018-02-21T21:15:33.455Z,66.93
2018-02-21T21:18:04.321Z,67.72
2018-02-21T21:20:35.109Z,68.50
2018-02-21T21:23:05.980Z,69.27
2018-02-21T21:25:36.869Z,70.06
2018-02-21T21:28:07.780Z,68.20
2018-02-21T21:30:38.595Z,67.99
2018-02-21T21:33:09.529Z,68.24
2018-02-21T21:35:40.454Z,70.44
2018-02-21T21:38:11.345Z,70.36
2018-02-21T21:40:42.226Z,68.65
2018-02-21T21:43:13.122Z,69.28
2018-02-21T21:45:44.007Z,70.60
2018-02-21T21:48:14.863Z,70.26
2018-02-21T21:50:45.722Z,70.43
2018-02-21T21:53:16.531Z,70.15
2018-02-21T21:55:47.398Z,70.24
2018-02-21T21:58:18.384Z,70.02
2018-02-21T22:00:49.246Z,70.68
2018-02-21T22:03:20.075Z,69.14
2018-02-21T22:05:50.962Z,69.66
2018-02-21T22:08:21.822Z,69.54
2018-02-21T22:10:52.706Z,70.64
2018-02-21T22:13:23.667Z,71.93
2018-02-21T22:15:56.558Z,72.14
2018-02-21T22:18:27.398Z,73.22
2018-02-21T22:20:58.237Z,73.35
2018-02-21T22:23:29.097Z,73.81
2018-02-21T22:25:59.909Z,73.81
2018-02-21T22:28:30.801Z,72.09
2018-02-21T22:31:02.698Z,72.30
2018-02-21T22:33:33.563Z,73.50
2018-02-21T22:36:04.546Z,73.66
2018-02-21T22:38:35.377Z,73.77
2018-02-21T22:41:06.204Z,73.91
2018-02-21T22:43:37.013Z,73.70
2018-02-21T22:46:07.757Z,74.03
2018-02-21T22:48:38.551Z,74.27
2018-02-21T22:51:09.302Z,73.64
2018-02-21T22:53:40.057Z,73.38
2018-02-21T22:56:10.821Z,72.48
2018-02-21T22:58:41.591Z,72.22
2018-02-21T23:01:12.358Z,72.12
2018-02-21T23:03:43.165Z,73.35
2018-02-21T23:06:13.920Z,73.00
2018-02-21T23:08:44.681Z,73.67
2018-02-21T23:11:17.506Z,74.01
2018-02-21T23:13:48.267Z,74.03
2018-02-21T23:16:19.016Z,74.54
2018-02-21T23:18:50.841Z,74.75
2018-02-21T23:21:21.637Z,73.67
2018-02-21T23:23:52.417Z,73.97
2018-02-21T23:26:23.156Z,74.85
2018-02-21T23:28:53.933Z,75.24
2018-02-21T23:31:24.690Z,74.91
2018-02-21T23:33:55.490Z,75.24
2018-02-21T23:36:26.294Z,75.10
2018-02-21T23:38:57.086Z,73.05
2018-02-21T23:41:27.841Z,73.93
2018-02-21T23:43:58.628Z,74.85
2018-02-21T23:46:29.394Z,74.31
2018-02-21T23:49:00.170Z,75.08
2018-02-21T23:51:30.978Z,74.91
2018-02-21T23:54:01.754Z,74.39
2018-02-21T23:56:32.504Z,74.32
2018-02-21T23:59:03.268Z,73.98
